createdAt,value
2023-05-25T00:02:24.840Z,11.15
2023-05-25T00:04:53.485Z,13.00
2023-05-25T00:07:21.757Z,12.90
2023-05-25T00:09:49.992Z,11.85
2023-05-25T00:12:18.310Z,11.90
2023-05-25T00:14:48.336Z,12.32
2023-05-25T00:17:18.823Z,12.73
2023-05-25T00:19:47.199Z,12.68
2023-05-25T00:22:15.564Z,12.07
2023-05-25T00:24:43.874Z,13.10
2023-05-25T00:27:12.111Z,11.60
2023-05-25T00:29:40.437Z,11.68
2023-05-25T00:32:10.281Z,12.35
2023-05-25T00:34:38.601Z,13.15
2023-05-25T00:37:07.391Z,13.18
2023-05-25T00:39:35.637Z,12.82
2023-05-25T00:42:04.213Z,13.35
2023-05-25T00:44:32.529Z,12.05
2023-05-25T00:47:02.325Z,11.32
2023-05-25T00:49:35.028Z,11.35
2023-05-25T00:52:03.572Z,10.98
2023-05-25T00:54:33.522Z,12.73
2023-05-25T00:57:04.539Z,11.25
2023-05-25T00:59:41.371Z,11.43
2023-05-25T01:02:11.632Z,11.85
2023-05-25T01:04:45.442Z,11.63
2023-05-25T01:07:19.434Z,12.05
2023-05-25T01:09:49.709Z,12.55
2023-05-25T01:12:20.202Z,13.18
2023-05-25T01:14:49.430Z,13.02
2023-05-25T01:17:20.457Z,12.80
2023-05-25T01:20:08.143Z,12.57
2023-05-25T01:22:44.284Z,11.93
2023-05-25T01:25:17.701Z,12.90
2023-05-25T01:27:49.885Z,11.27
2023-05-25T01:30:20.600Z,11.98
2023-05-25T01:32:50.561Z,12.00
2023-05-25T01:35:21.824Z,13.13
2023-05-25T01:37:53.144Z,12.65
2023-05-25T01:40:21.402Z,11.50
2023-05-25T01:42:49.668Z,11.60
2023-05-25T01:45:18.053Z,11.88
2023-05-25T01:47:54.626Z,12.02
2023-05-25T01:50:28.079Z,12.55
2023-05-25T01:53:03.714Z,11.50
2023-05-25T01:55:35.968Z,11.07
2023-05-25T01:58:04.442Z,11.00
2023-05-25T02:00:33.712Z,11.60
2023-05-25T02:03:02.487Z,12.98
2023-05-25T02:05:31.110Z,12.85
2023-05-25T02:08:01.034Z,10.70
2023-05-25T02:10:29.260Z,11.45
2023-05-25T02:12:57.493Z,11.90
2023-05-25T02:15:26.057Z,12.10
2023-05-25T02:17:57.824Z,11.77
2023-05-25T02:20:26.203Z,12.02
2023-05-25T02:22:54.606Z,11.40
2023-05-25T02:25:24.270Z,11.48
2023-05-25T02:27:52.540Z,9.90
2023-05-25T02:30:21.001Z,12.13
2023-05-25T02:32:50.676Z,11.32
2023-05-25T02:35:19.134Z,17.02
2023-05-25T02:37:49.041Z,16.92
2023-05-25T02:40:19.273Z,16.17
2023-05-25T02:42:48.888Z,14.23
2023-05-25T02:45:17.216Z,12.93
2023-05-25T02:47:45.550Z,11.95
2023-05-25T02:50:13.952Z,12.82
2023-05-25T02:52:42.170Z,11.70
2023-05-25T02:55:13.310Z,12.50
2023-05-25T02:57:42.128Z,12.00
2023-05-25T03:00:13.238Z,12.50
2023-05-25T03:02:41.545Z,12.40
2023-05-25T03:05:10.372Z,11.75
2023-05-25T03:07:38.651Z,11.43
2023-05-25T03:10:07.566Z,11.30
2023-05-25T03:12:35.800Z,12.57
2023-05-25T03:15:04.185Z,12.15
2023-05-25T03:17:33.920Z,13.45
2023-05-25T03:20:02.306Z,12.07
2023-05-25T03:22:30.823Z,11.43
2023-05-25T03:24:59.732Z,11.27
2023-05-25T03:27:28.025Z,10.73
2023-05-25T03:29:56.260Z,11.63
2023-05-25T03:32:24.561Z,11.38
2023-05-25T03:34:54.275Z,12.10
2023-05-25T03:37:22.625Z,10.63
2023-05-25T03:39:50.921Z,9.93
2023-05-25T03:42:19.169Z,10.77
2023-05-25T03:44:47.449Z,10.13
2023-05-25T03:47:15.773Z,10.00
2023-05-25T03:49:44.098Z,9.50
2023-05-25T03:52:13.784Z,11.05
2023-05-25T03:54:42.019Z,10.45
2023-05-25T03:57:10.291Z,9.85
2023-05-25T03:59:38.579Z,9.13
2023-05-25T04:02:07.123Z,9.73
2023-05-25T04:04:35.537Z,10.30
2023-05-25T04:07:03.790Z,10.25
2023-05-25T04:09:33.490Z,10.55
2023-05-25T04:12:02.409Z,10.82
2023-05-25T04:14:30.675Z,10.35
2023-05-25T04:16:58.937Z,10.07
2023-05-25T04:19:27.200Z,9.57
2023-05-25T04:21:55.489Z,9.70
2023-05-25T04:24:23.799Z,10.15
2023-05-25T04:26:53.630Z,9.68
2023-05-25T04:29:21.877Z,9.90
2023-05-25T04:31:51.693Z,10.70
2023-05-25T04:34:21.556Z,10.15
2023-05-25T04:36:49.843Z,9.90
2023-05-25T04:39:18.703Z,10.35
2023-05-25T04:41:48.397Z,10.27
2023-05-25T04:44:19.971Z,9.73
2023-05-25T04:46:48.228Z,9.30
2023-05-25T04:49:19.060Z,9.30
2023-05-25T04:51:47.333Z,10.15
2023-05-25T04:54:15.866Z,8.07
2023-05-25T04:56:44.178Z,9.90
2023-05-25T04:59:12.648Z,9.82
2023-05-25T05:01:42.344Z,8.60
2023-05-25T05:04:11.077Z,8.40
2023-05-25T05:06:40.897Z,8.50
2023-05-25T05:09:09.960Z,8.38
2023-05-25T05:11:38.200Z,6.88
2023-05-25T05:14:06.487Z,7.13
2023-05-25T05:16:35.298Z,6.35
2023-05-25T05:19:05.188Z,5.60
2023-05-25T05:21:33.443Z,5.23
2023-05-25T05:24:02.232Z,5.60
2023-05-25T05:26:31.524Z,5.30
2023-05-25T05:29:02.429Z,4.90
2023-05-25T05:31:31.749Z,4.50
2023-05-25T05:34:00.471Z,4.13
2023-05-25T05:36:31.235Z,4.27
2023-05-25T05:39:03.473Z,3.40
2023-05-25T05:41:31.685Z,3.10
2023-05-25T05:44:02.245Z,3.23
2023-05-25T05:46:30.518Z,3.63
2023-05-25T05:48:58.742Z,3.70
2023-05-25T05:51:27.374Z,3.57
2023-05-25T05:53:56.987Z,3.20
2023-05-25T05:56:25.197Z,3.23
2023-05-25T05:58:54.580Z,4.37
2023-05-25T06:01:23.488Z,5.27
2023-05-25T06:03:52.982Z,5.13
2023-05-25T06:06:22.153Z,4.47
2023-05-25T06:08:50.409Z,3.43
2023-05-25T06:11:20.133Z,4.47
2023-05-25T06:13:48.452Z,3.23
2023-05-25T06:16:20.739Z,3.53
2023-05-25T06:18:49.047Z,4.00
2023-05-25T06:21:17.349Z,3.60
2023-05-25T06:23:45.712Z,3.93
2023-05-25T06:26:14.103Z,3.50
2023-05-25T06:28:43.735Z,3.97
2023-05-25T06:31:12.016Z,3.70
2023-05-25T06:33:40.220Z,3.70
2023-05-25T06:36:09.858Z,3.53
2023-05-25T06:38:38.138Z,3.87
2023-05-25T06:41:07.468Z,3.70
2023-05-25T06:43:35.768Z,4.17
2023-05-25T06:46:05.419Z,4.40
2023-05-25T06:48:33.707Z,4.40
2023-05-25T06:51:02.192Z,3.73
2023-05-25T06:53:30.515Z,4.10
2023-05-25T06:55:58.776Z,4.30
2023-05-25T06:58:27.380Z,3.63
2023-05-25T07:00:55.601Z,4.03
2023-05-25T07:03:25.230Z,3.80
2023-05-25T07:05:53.502Z,4.10
2023-05-25T07:08:21.760Z,3.50
2023-05-25T07:10:50.441Z,3.43
2023-05-25T07:13:18.838Z,3.80
2023-05-25T07:15:47.465Z,4.40
2023-05-25T07:18:16.271Z,4.30
2023-05-25T07:20:46.543Z,3.77
2023-05-25T07:23:15.188Z,3.87
2023-05-25T07:25:43.643Z,3.00
2023-05-25T07:28:12.108Z,3.03
2023-05-25T07:30:41.964Z,3.87
2023-05-25T07:33:10.337Z,3.17
2023-05-25T07:35:38.644Z,4.23
2023-05-25T07:38:08.244Z,3.90
2023-05-25T07:40:36.729Z,3.20
2023-05-25T07:43:06.863Z,4.07
2023-05-25T07:45:36.558Z,3.47
2023-05-25T07:48:07.306Z,4.57
2023-05-25T07:50:36.085Z,4.60
2023-05-25T07:53:08.290Z,4.40
2023-05-25T07:55:36.573Z,3.67
2023-05-25T07:58:07.423Z,3.30
2023-05-25T08:00:35.720Z,4.10
2023-05-25T08:03:04.182Z,4.20
2023-05-25T08:05:32.724Z,4.03
2023-05-25T08:08:01.079Z,4.13
2023-05-25T08:10:32.516Z,3.27
2023-05-25T08:13:00.870Z,4.23
2023-05-25T08:15:29.162Z,3.53
2023-05-25T08:17:57.694Z,3.80
2023-05-25T08:20:26.265Z,5.00
2023-05-25T08:22:57.195Z,4.90
2023-05-25T08:25:25.455Z,4.70
2023-05-25T08:27:55.312Z,3.97
2023-05-25T08:30:23.683Z,3.50
2023-05-25T08:32:51.979Z,3.53
2023-05-25T08:35:20.265Z,4.27
2023-05-25T08:37:48.567Z,3.17
2023-05-25T08:40:17.939Z,4.27
2023-05-25T08:42:46.489Z,4.50
2023-05-25T08:45:30.563Z,3.83
2023-05-25T08:48:05.255Z,4.30
2023-05-25T08:50:52.169Z,3.33
2023-05-25T08:53:22.786Z,3.67
2023-05-25T08:55:55.397Z,3.67
2023-05-25T08:58:32.093Z,4.53
2023-05-25T09:01:09.799Z,4.03
2023-05-25T09:03:39.636Z,3.47
2023-05-25T09:06:08.326Z,4.03
2023-05-25T09:08:39.385Z,4.30
2023-05-25T09:11:09.931Z,5.00
2023-05-25T09:13:38.833Z,4.30
2023-05-25T09:16:08.758Z,4.10
2023-05-25T09:18:37.626Z,4.60
2023-05-25T09:21:06.135Z,4.70
2023-05-25T09:23:35.524Z,3.60
2023-05-25T09:26:03.905Z,4.20
2023-05-25T09:28:32.144Z,4.57
2023-05-25T09:31:00.582Z,4.20
2023-05-25T09:33:30.215Z,3.70
2023-05-25T09:35:58.456Z,3.70
2023-05-25T09:38:27.226Z,4.10
2023-05-25T09:40:55.877Z,4.13
2023-05-25T09:43:39.787Z,3.80
2023-05-25T09:46:11.559Z,3.63
2023-05-25T09:48:42.168Z,3.53
2023-05-25T09:51:10.787Z,4.20
2023-05-25T09:53:39.105Z,3.30
2023-05-25T09:56:07.563Z,5.80
2023-05-25T09:58:36.202Z,4.40
2023-05-25T10:01:05.508Z,4.93
2023-05-25T10:03:33.851Z,5.83
2023-05-25T10:06:07.188Z,5.27
2023-05-25T10:08:35.675Z,5.40
2023-05-25T10:11:04.773Z,5.83
2023-05-25T10:13:34.721Z,5.73
2023-05-25T10:16:04.974Z,6.63
2023-05-25T10:18:37.079Z,5.47
2023-05-25T10:21:10.280Z,5.00
2023-05-25T10:23:42.755Z,5.10
2023-05-25T10:26:13.027Z,5.93
2023-05-25T10:28:43.241Z,5.53
2023-05-25T10:31:11.755Z,4.60
2023-05-25T10:33:40.429Z,5.20
2023-05-25T10:36:13.382Z,4.93
2023-05-25T10:38:44.743Z,5.60
2023-05-25T10:41:16.213Z,5.57
2023-05-25T10:43:44.806Z,5.07
2023-05-25T10:46:15.119Z,5.60
2023-05-25T10:48:48.057Z,5.07
2023-05-25T10:51:20.754Z,4.50
2023-05-25T10:53:59.733Z,3.90
2023-05-25T10:56:28.038Z,4.40
2023-05-25T10:58:56.943Z,4.53
2023-05-25T11:01:26.001Z,4.57
2023-05-25T11:03:59.167Z,4.10
2023-05-25T11:07:01.013Z,4.93
2023-05-25T11:09:32.119Z,5.10
2023-05-25T11:12:04.461Z,4.33
2023-05-25T11:14:36.121Z,5.23
2023-05-25T11:17:10.671Z,5.13
2023-05-25T11:19:43.791Z,5.00
2023-05-25T11:22:16.734Z,5.20
2023-05-25T11:24:46.721Z,4.60
2023-05-25T11:27:17.849Z,4.83
2023-05-25T11:29:46.157Z,4.23
2023-05-25T11:32:16.185Z,4.47
2023-05-25T11:34:46.594Z,3.80
2023-05-25T11:37:21.217Z,4.07
2023-05-25T11:39:51.879Z,4.60
2023-05-25T11:42:22.172Z,5.00
2023-05-25T11:44:50.697Z,4.53
2023-05-25T11:47:23.315Z,4.10
2023-05-25T11:49:51.890Z,4.20
2023-05-25T11:52:22.284Z,4.60
2023-05-25T11:54:56.001Z,3.87
2023-05-25T11:57:25.767Z,4.00
2023-05-25T11:59:55.034Z,4.27
2023-05-25T12:02:24.695Z,4.07
2023-05-25T12:04:57.146Z,4.60
2023-05-25T12:07:26.244Z,4.70
2023-05-25T12:10:07.039Z,4.17
2023-05-25T12:12:42.705Z,4.50
2023-05-25T12:15:12.726Z,4.17
2023-05-25T12:17:43.863Z,4.30
2023-05-25T12:20:15.342Z,5.73
2023-05-25T12:22:44.748Z,4.23
2023-05-25T12:25:16.032Z,3.93
2023-05-25T12:27:44.433Z,4.10
2023-05-25T12:30:13.189Z,4.17
2023-05-25T12:33:04.533Z,4.33
2023-05-25T12:35:46.773Z,4.40
2023-05-25T12:38:16.585Z,4.10
2023-05-25T12:40:46.387Z,5.63
2023-05-25T12:43:16.890Z,4.50
2023-05-25T12:45:45.517Z,4.30
2023-05-25T12:48:13.914Z,4.50
2023-05-25T12:51:00.823Z,5.73
2023-05-25T12:53:31.244Z,5.00
2023-05-25T12:56:05.218Z,4.20
2023-05-25T12:58:33.659Z,4.60
2023-05-25T13:01:02.234Z,4.73
2023-05-25T13:03:30.859Z,4.60
2023-05-25T13:06:02.487Z,4.43
2023-05-25T13:08:31.034Z,4.67
2023-05-25T13:11:00.067Z,4.20
2023-05-25T13:13:29.727Z,3.83
2023-05-25T13:15:58.337Z,4.43
2023-05-25T13:18:26.677Z,4.03
2023-05-25T13:20:56.758Z,4.20
2023-05-25T13:23:25.618Z,4.53
2023-05-25T13:25:53.831Z,4.17
2023-05-25T13:28:22.036Z,3.90
2023-05-25T13:30:51.645Z,4.13
2023-05-25T13:33:20.006Z,3.90
2023-05-25T13:35:58.517Z,3.83
2023-05-25T13:38:27.580Z,3.97
2023-05-25T13:40:55.872Z,3.80
2023-05-25T13:43:24.197Z,3.60
2023-05-25T13:45:53.871Z,4.00
2023-05-25T13:48:22.398Z,4.53
2023-05-25T13:50:50.721Z,4.10
2023-05-25T13:53:19.033Z,3.80
2023-05-25T13:55:47.715Z,3.77
2023-05-25T13:58:16.077Z,3.87
2023-05-25T14:00:44.576Z,3.93
2023-05-25T14:03:14.667Z,4.10
2023-05-25T14:05:43.297Z,4.10
2023-05-25T14:08:12.811Z,3.37
2023-05-25T14:10:43.397Z,4.03
2023-05-25T14:13:13.890Z,3.20
2023-05-25T14:15:42.286Z,4.17
2023-05-25T14:18:10.847Z,3.77
2023-05-25T14:20:42.670Z,3.40
2023-05-25T14:23:13.700Z,3.77
2023-05-25T14:25:44.297Z,3.20
2023-05-25T14:28:15.944Z,3.27
2023-05-25T14:30:44.176Z,3.20
2023-05-25T14:33:17.241Z,3.00
2023-05-25T14:35:47.205Z,3.67
2023-05-25T14:38:15.627Z,3.60
2023-05-25T14:40:43.935Z,3.50
2023-05-25T14:43:12.158Z,3.60
2023-05-25T14:45:40.431Z,3.73
2023-05-25T14:48:16.635Z,3.90
2023-05-25T14:50:46.665Z,3.60
2023-05-25T14:53:14.884Z,3.27
2023-05-25T14:55:43.487Z,3.30
2023-05-25T14:58:12.227Z,3.40
2023-05-25T15:00:40.463Z,3.93
2023-05-25T15:03:08.927Z,4.10
2023-05-25T15:05:37.215Z,4.07
2023-05-25T15:08:07.003Z,3.63
2023-05-25T15:10:35.347Z,3.20
2023-05-25T15:13:03.622Z,4.50
2023-05-25T15:15:32.217Z,3.80
2023-05-25T15:18:00.491Z,3.90
2023-05-25T15:20:28.824Z,3.80
2023-05-25T15:22:57.098Z,3.70
2023-05-25T15:25:35.097Z,3.90
2023-05-25T15:28:04.384Z,4.20
2023-05-25T15:30:34.169Z,3.50
2023-05-25T15:33:02.505Z,3.73
2023-05-25T15:35:32.606Z,3.87
2023-05-25T15:38:01.765Z,3.80
2023-05-25T15:40:31.521Z,4.00
2023-05-25T15:42:59.788Z,3.43
2023-05-25T15:45:28.029Z,3.57
2023-05-25T15:47:56.373Z,4.10
2023-05-25T15:50:24.787Z,3.87
2023-05-25T15:52:53.094Z,4.17
2023-05-25T15:55:27.372Z,3.90
2023-05-25T15:57:57.043Z,3.43
2023-05-25T16:00:25.890Z,4.10
2023-05-25T16:02:54.149Z,4.23
2023-05-25T16:05:22.414Z,4.20
2023-05-25T16:07:50.636Z,4.30
2023-05-25T16:10:18.888Z,3.90
2023-05-25T16:12:47.115Z,3.87
2023-05-25T16:15:16.906Z,3.97
2023-05-25T16:17:45.125Z,3.90
2023-05-25T16:20:13.903Z,4.10
2023-05-25T16:22:42.165Z,4.17
2023-05-25T16:25:11.004Z,3.83
2023-05-25T16:27:39.268Z,4.63
2023-05-25T16:30:10.028Z,3.33
2023-05-25T16:32:40.956Z,3.77
2023-05-25T16:35:09.816Z,4.10
2023-05-25T16:37:38.027Z,3.10
2023-05-25T16:40:09.866Z,3.90
2023-05-25T16:42:38.138Z,3.90
2023-05-25T16:45:07.588Z,3.30
2023-05-25T16:47:35.949Z,3.73
2023-05-25T16:50:06.300Z,4.10
2023-05-25T16:52:34.586Z,3.70
2023-05-25T16:55:02.806Z,3.93
2023-05-25T16:57:31.036Z,4.10
2023-05-25T16:59:59.263Z,3.63
2023-05-25T17:02:27.593Z,3.90
2023-05-25T17:04:55.905Z,3.87
2023-05-25T17:07:25.804Z,3.67
2023-05-25T17:09:56.631Z,4.37
2023-05-25T17:12:24.830Z,4.63
2023-05-25T17:14:53.089Z,3.40
2023-05-25T17:17:21.293Z,3.30
2023-05-25T17:19:52.269Z,4.47
2023-05-25T17:22:20.570Z,4.27
2023-05-25T17:24:50.204Z,4.07
2023-05-25T17:27:18.996Z,4.50
2023-05-25T17:29:47.218Z,4.13
2023-05-25T17:32:21.140Z,3.80
2023-05-25T17:34:49.544Z,4.30
2023-05-25T17:37:19.001Z,3.67
2023-05-25T17:39:47.399Z,4.00
2023-05-25T17:42:16.989Z,3.53
2023-05-25T17:44:45.201Z,4.50
2023-05-25T17:47:13.513Z,4.10
2023-05-25T17:49:41.858Z,4.13
2023-05-25T17:52:13.016Z,4.87
2023-05-25T17:54:41.547Z,4.83
2023-05-25T17:57:13.334Z,4.60
2023-05-25T17:59:45.507Z,4.77
2023-05-25T18:02:17.475Z,4.60
2023-05-25T18:04:45.869Z,4.30
2023-05-25T18:07:14.105Z,4.13
2023-05-25T18:09:42.365Z,4.90
2023-05-25T18:12:11.168Z,4.47
2023-05-25T18:14:39.632Z,4.00
2023-05-25T18:17:09.361Z,4.37
2023-05-25T18:19:37.828Z,4.23
2023-05-25T18:22:09.512Z,4.67
2023-05-25T18:24:40.576Z,4.90
2023-05-25T18:27:11.696Z,4.13
2023-05-25T18:29:39.905Z,5.00
2023-05-25T18:32:09.776Z,4.80
2023-05-25T18:34:38.298Z,4.30
2023-05-25T18:37:06.776Z,5.30
2023-05-25T18:39:38.242Z,8.70
2023-05-25T18:42:10.135Z,11.47
2023-05-25T18:44:38.457Z,8.43
2023-05-25T18:47:11.738Z,6.20
2023-05-25T18:49:39.964Z,6.43
2023-05-25T18:52:10.382Z,6.30
2023-05-25T18:54:39.288Z,5.77
2023-05-25T18:57:08.194Z,5.67
2023-05-25T18:59:36.433Z,5.70
2023-05-25T19:02:12.013Z,7.43
2023-05-25T19:04:40.397Z,6.80
2023-05-25T19:07:17.337Z,6.37
2023-05-25T19:09:48.246Z,5.40
2023-05-25T19:12:16.747Z,5.37
2023-05-25T19:14:44.962Z,6.40
2023-05-25T19:17:17.676Z,8.73
2023-05-25T19:19:45.927Z,7.77
2023-05-25T19:22:14.137Z,7.77
2023-05-25T19:24:44.313Z,6.50
2023-05-25T19:27:16.601Z,6.80
2023-05-25T19:29:45.556Z,6.73
2023-05-25T19:32:17.171Z,6.28
2023-05-25T19:34:45.755Z,6.88
2023-05-25T19:37:14.201Z,6.97
2023-05-25T19:39:43.730Z,5.77
2023-05-25T19:42:14.507Z,6.57
2023-05-25T19:44:42.789Z,6.55
2023-05-25T19:47:11.081Z,8.02
2023-05-25T19:49:47.861Z,8.25
2023-05-25T19:52:28.346Z,7.60
2023-05-25T19:54:56.794Z,7.10
2023-05-25T19:57:26.177Z,6.75
2023-05-25T19:59:54.429Z,7.05
2023-05-25T20:02:25.584Z,7.72
2023-05-25T20:04:55.306Z,8.15
2023-05-25T20:07:24.117Z,7.53
2023-05-25T20:09:55.510Z,6.75
2023-05-25T20:12:26.336Z,5.80
2023-05-25T20:14:55.038Z,5.60
2023-05-25T20:17:23.352Z,5.90
2023-05-25T20:19:51.737Z,6.93
2023-05-25T20:22:22.032Z,5.88
2023-05-25T20:24:50.577Z,5.40
2023-05-25T20:27:19.035Z,6.05
2023-05-25T20:29:50.286Z,6.65
2023-05-25T20:32:18.518Z,5.80
2023-05-25T20:34:46.740Z,6.72
2023-05-25T20:37:15.070Z,7.10
2023-05-25T20:39:44.842Z,7.70
2023-05-25T20:42:14.072Z,6.75
2023-05-25T20:44:42.320Z,8.02
2023-05-25T20:47:10.746Z,7.60
2023-05-25T20:49:38.988Z,6.95
2023-05-25T20:52:07.442Z,7.45
2023-05-25T20:54:36.725Z,6.00
2023-05-25T20:57:07.773Z,6.65
2023-05-25T20:59:36.027Z,5.65
2023-05-25T21:02:04.493Z,6.55
2023-05-25T21:04:33.025Z,6.15
2023-05-25T21:07:01.388Z,6.97
2023-05-25T21:09:29.632Z,6.50
2023-05-25T21:11:57.916Z,6.47
2023-05-25T21:14:27.533Z,6.60
2023-05-25T21:16:56.076Z,6.85
2023-05-25T21:19:24.488Z,7.50
2023-05-25T21:21:52.869Z,7.20
2023-05-25T21:24:21.159Z,7.45
2023-05-25T21:26:49.415Z,7.80
2023-05-25T21:29:17.631Z,7.65
2023-05-25T21:31:47.444Z,6.95
2023-05-25T21:34:15.825Z,7.32
2023-05-25T21:36:44.054Z,6.40
2023-05-25T21:39:12.278Z,6.85
2023-05-25T21:41:41.561Z,7.10
2023-05-25T21:44:13.116Z,7.13
2023-05-25T21:46:41.466Z,7.88
2023-05-25T21:49:11.146Z,7.88
2023-05-25T21:51:39.490Z,7.40
2023-05-25T21:54:07.776Z,7.95
2023-05-25T21:56:36.016Z,7.25
2023-05-25T21:59:04.633Z,8.20
2023-05-25T22:01:32.994Z,7.15
2023-05-25T22:04:02.265Z,7.60
2023-05-25T22:06:32.813Z,6.80
2023-05-25T22:09:02.203Z,7.47
2023-05-25T22:11:30.609Z,7.90
2023-05-25T22:13:59.640Z,7.10
2023-05-25T22:16:27.848Z,7.20
2023-05-25T22:18:56.101Z,7.80
2023-05-25T22:21:24.463Z,7.57
2023-05-25T22:23:54.325Z,7.22
2023-05-25T22:26:22.880Z,7.53
2023-05-25T22:28:51.171Z,8.60
2023-05-25T22:31:19.488Z,7.97
2023-05-25T22:33:47.777Z,8.30
2023-05-25T22:36:16.482Z,7.60
2023-05-25T22:38:44.756Z,7.97
2023-05-25T22:41:14.364Z,8.35
2023-05-25T22:43:43.591Z,8.48
2023-05-25T22:46:11.887Z,8.27
2023-05-25T22:48:40.340Z,7.97
2023-05-25T22:51:08.872Z,8.02
2023-05-25T22:53:37.102Z,8.13
2023-05-25T22:56:05.425Z,8.00
2023-05-25T22:58:35.079Z,8.95
2023-05-25T23:01:03.305Z,7.40
2023-05-25T23:03:31.598Z,9.05
2023-05-25T23:05:59.953Z,8.55
2023-05-25T23:08:28.568Z,8.35
2023-05-25T23:10:56.811Z,7.72
2023-05-25T23:13:27.830Z,8.88
2023-05-25T23:15:57.497Z,8.30
2023-05-25T23:18:25.784Z,7.72
2023-05-25T23:20:54.031Z,7.85
2023-05-25T23:23:22.259Z,8.18
2023-05-25T23:25:50.485Z,7.75
2023-05-25T23:28:19.182Z,8.50
2023-05-25T23:30:47.384Z,8.00
2023-05-25T23:33:18.370Z,7.63
2023-05-25T23:35:46.907Z,7.95
2023-05-25T23:38:15.717Z,7.65
2023-05-25T23:40:43.982Z,7.35
2023-05-25T23:43:12.856Z,7.43
2023-05-25T23:45:41.213Z,8.43
2023-05-25T23:48:09.593Z,8.52
2023-05-25T23:50:40.312Z,8.73
2023-05-25T23:53:08.582Z,8.95
2023-05-25T23:55:36.818Z,9.27
2023-05-25T23:58:05.754Z,9.10
